Eliporto

IT-0581 · Apulia, Włochy

Historia METAR IT-0581 · Eliporto

Poniżej widzisz METAR-y z ostatnich kilku dni. Wybierz rok, aby przeglądać starsze METAR-y, począwszy od roku 2007.

17 lipca 2024

Czas Kod Pogoda Temp. Widoczność Sufit Wiatr METAR/SPECI
11:50
V
38 °C 10 km+ - 020° 020° 7 kt METAR LIBF 170950Z 02007KT 300V060 CAVOK 38/13 Q1013
10:50
V
37 °C 10 km+ - 320° 320° 8 kt METAR LIBF 170850Z 32008KT 290V360 CAVOK 37/12 Q1013
09:50
V
35 °C 10 km+ - 330° 330° 11 kt METAR LIBF 170750Z 33011KT 290V350 CAVOK 35/13 Q1014
08:50
V
33 °C 10 km+ - 320° 320° 11 kt METAR LIBF 170650Z 32011KT CAVOK 33/17 Q1013
07:50
V
30 °C 10 km+ - 310° 310° 10 kt METAR LIBF 170550Z 31010KT CAVOK 30/16 Q1013
07:00
V
29 °C 10 km+ - 300° 300° 9 kt METAR LIBF 170500Z 30009KT CAVOK 29/13 Q1013

16 lipca 2024

Czas Kod Pogoda Temp. Widoczność Sufit Wiatr METAR/SPECI
22:50
V
29 °C 10 km+ - 330° 330° 4 kt METAR LIBF 162050Z 33004KT CAVOK 29/15 Q1012
21:50
V
31 °C 10 km+ - 180° 180° 2 kt METAR LIBF 161950Z 18002KT CAVOK 31/15 Q1012
20:50
V
32 °C 10 km+ - 170° 170° 4 kt METAR LIBF 161850Z 17004KT CAVOK 32/15 Q1011
19:50
V
34 °C 10 km+ - 130° 130° 8 kt METAR LIBF 161750Z 13008KT CAVOK 34/15 Q1011
18:50
V
35 °C 10 km+ - 120° 120° 10 kt METAR LIBF 161650Z 12010KT 9999 FEW040 35/15 Q1010
17:50
V
37 °C 10 km+ - 130° 130° 10 kt METAR LIBF 161550Z 13010KT 9999 FEW040 37/15 Q1010
16:50
V
38 °C 10 km+ - 100° 100° 12 kt METAR LIBF 161450Z 10012KT 9999 FEW040 38/14 Q1010
15:50
V
38 °C 10 km+ - 100° 100° 14 kt METAR LIBF 161350Z 10014KT 9999 FEW040 38/14 Q1010
15:10
V
40 °C 10 km+ - 080° 080° 10 kt METAR LIBF 161310Z 08010KT 040V110 9999 FEW040 40/14 Q1010
14:50
V
40 °C 10 km+ - 350° 350° 8 kt METAR LIBF 161250Z 35008KT 300V060 CAVOK 40/12 Q1010
13:50
V
40 °C 10 km+ - 330° 330° 7 kt METAR LIBF 161150Z 33007KT 250V050 CAVOK 40/11 Q1010
12:50
V
40 °C 10 km+ - Var Var 4 kt METAR LIBF 161050Z VRB04KT CAVOK 40/11 Q1011
11:50
V
39 °C 10 km+ - Var Var 6 kt METAR LIBF 160950Z VRB06KT CAVOK 39/12 Q1011
10:50
V
37 °C 10 km+ - 330° 330° 4 kt METAR LIBF 160850Z 33004KT 290V090 CAVOK 37/13 Q1012
09:50
V
35 °C 10 km+ - Var Var 3 kt METAR LIBF 160750Z VRB03KT CAVOK 35/13 Q1012
08:50
V
34 °C 10 km+ - 350° 350° 3 kt METAR LIBF 160650Z 35003KT 300V100 CAVOK 34/13 Q1012
07:50
V
31 °C 10 km+ - Var Var 1 kt METAR LIBF 160550Z VRB01KT CAVOK 31/14 Q1012
07:00
V
27 °C 10 km+ - Var Var 1 kt METAR LIBF 160500Z VRB01KT CAVOK 27/14 Q1012

15 lipca 2024

Czas Kod Pogoda Temp. Widoczność Sufit Wiatr METAR/SPECI
22:50
V
28 °C 10 km+ - 300° 300° 5 kt METAR LIBF 152050Z 30005KT CAVOK 28/17 Q1012
21:50
V
30 °C 10 km+ - 330° 330° 6 kt METAR LIBF 151950Z 33006KT CAVOK 30/18 Q1012
20:50
V
33 °C 10 km+ - 110° 110° 4 kt METAR LIBF 151850Z 11004KT CAVOK 33/13 Q1011
19:50
V
34 °C 10 km+ - 130° 130° 6 kt METAR LIBF 151750Z 13006KT 100V160 CAVOK 34/13 Q1011
18:50
V
36 °C 10 km+ - 120° 120° 10 kt METAR LIBF 151650Z 12010KT CAVOK 36/13 Q1010
17:50
V
37 °C 10 km+ - 110° 110° 12 kt METAR LIBF 151550Z 11012KT CAVOK 37/13 Q1010
16:50
V
37 °C 10 km+ - 100° 100° 15 kt METAR LIBF 151450Z 10015KT 070V130 CAVOK 37/14 Q1010
15:50
V
39 °C 10 km+ - 090° 090° 16 kt METAR LIBF 151350Z 09016KT 060V120 CAVOK 39/13 Q1010
14:50
V
40 °C 10 km+ - 090° 090° 10 kt METAR LIBF 151250Z 09010KT 060V130 CAVOK 40/11 Q1010
13:50
V
39 °C 10 km+ - Var Var 5 kt METAR LIBF 151150Z VRB05KT CAVOK 39/10 Q1011
12:50
V
40 °C 10 km+ - 360° 360° 5 kt METAR LIBF 151050Z 36005KT 300V050 CAVOK 40/11 Q1012
11:50
V
37 °C 10 km+ - Var Var 4 kt METAR LIBF 150950Z VRB04KT CAVOK 37/10 Q1012
10:50
V
37 °C 10 km+ - 340° 340° 6 kt METAR LIBF 150850Z 34006KT 310V010 CAVOK 37/13 Q1012
09:50
V
35 °C 10 km+ - 340° 340° 8 kt METAR LIBF 150750Z 34008KT 300V360 CAVOK 35/12 Q1012
08:50
V
33 °C 10 km+ - 320° 320° 9 kt METAR LIBF 150650Z 32009KT CAVOK 33/12 Q1013
07:50
V
30 °C 10 km+ - 280° 280° 6 kt METAR LIBF 150550Z 28006KT CAVOK 30/09 Q1012
Zgłoś zmianę